Time;durP1;ratioP1;P1;durP2;ratioP2;P2;SDS_P1;SDS_P2;PMS_P1;PMS_P2;Temp;Humidity;BMP_temperature;BMP_pressure;BME280_temperature;BME280_humidity;BME280_pressure;Samples;Min_cycle;Max_cycle;Signal;HPM_P1;HPM_P2
2021/04/08 00:01:43;;;;;;;5.90;2.22;;;5.60;52.20;;;;;;10087200;28;20028;-63
2021/04/08 00:06:34;;;;;;;4.35;1.90;;;5.60;52.10;;;;;;10085566;28;20037;-63
2021/04/08 00:11:25;;;;;;;3.10;1.65;;;5.50;52.10;;;;;;10068228;28;20591;-62
2021/04/08 00:16:16;;;;;;;3.67;1.80;;;5.50;52.00;;;;;;10085073;28;21160;-63
2021/04/08 00:21:07;;;;;;;1.75;1.40;;;5.60;52.10;;;;;;10086247;28;20024;-63
2021/04/08 00:25:58;;;;;;;3.03;1.95;;;5.60;52.10;;;;;;10085142;28;20032;-62
2021/04/08 00:30:49;;;;;;;4.18;1.85;;;5.50;51.90;;;;;;10085458;28;20036;-63
2021/04/08 00:35:41;;;;;;;6.30;1.80;;;5.50;52.00;;;;;;10084991;28;20055;-65
2021/04/08 00:40:31;;;;;;;1.90;1.17;;;5.50;52.00;;;;;;10085072;28;20037;-64
2021/04/08 00:45:22;;;;;;;4.00;1.30;;;5.40;52.00;;;;;;10100269;28;20040;-64
2021/04/08 00:50:14;;;;;;;1.92;1.05;;;5.30;51.90;;;;;;10084272;28;20021;-63
2021/04/08 00:55:06;;;;;;;4.78;1.70;;;5.30;51.90;;;;;;10085079;28;20044;-64
2021/04/08 00:59:57;;;;;;;2.45;1.33;;;5.30;51.90;;;;;;10083782;28;20028;-63
2021/04/08 01:04:48;;;;;;;4.10;1.30;;;5.30;51.90;;;;;;10083527;28;20047;-62
2021/04/08 01:09:39;;;;;;;2.20;1.48;;;5.40;51.90;;;;;;10082864;28;20446;-63
2021/04/08 01:14:30;;;;;;;3.92;1.83;;;5.40;51.70;;;;;;10084084;28;20097;-62
2021/04/08 01:19:33;;;;;;;2.85;1.25;;;5.40;51.60;;;;;;10083177;28;20560;-64
2021/04/08 01:24:43;;;;;;;2.75;2.10;;;5.40;51.50;;;;;;10082971;28;20028;-63
2021/04/08 01:29:51;;;;;;;2.17;0.90;;;5.40;51.50;;;;;;10081922;28;20035;-63
2021/04/08 01:34:48;;;;;;;2.45;1.70;;;5.30;51.30;;;;;;10082503;28;20151;-62
2021/04/08 01:39:42;;;;;;;1.20;0.80;;;5.40;51.30;;;;;;10082580;28;20041;-63
2021/04/08 01:44:34;;;;;;;3.42;1.10;;;5.40;51.20;;;;;;10081466;28;20024;-63
2021/04/08 01:49:31;;;;;;;2.92;1.65;;;5.30;51.00;;;;;;10082789;28;20578;-63
2021/04/08 01:54:27;;;;;;;4.03;1.30;;;5.40;51.00;;;;;;10082405;28;20047;-63
2021/04/08 01:59:18;;;;;;;1.90;1.23;;;5.40;50.90;;;;;;10064953;28;20032;-63
2021/04/08 02:04:10;;;;;;;1.75;1.20;;;5.40;50.90;;;;;;10081413;28;20607;-61
2021/04/08 02:09:03;;;;;;;3.17;1.10;;;5.30;50.80;;;;;;10082342;28;20117;-65
2021/04/08 02:13:56;;;;;;;1.27;0.73;;;5.40;50.70;;;;;;10081178;28;20020;-63
2021/04/08 02:18:49;;;;;;;3.15;1.05;;;5.40;50.60;;;;;;10081413;28;20469;-62
2021/04/08 02:23:42;;;;;;;1.42;0.95;;;5.40;50.50;;;;;;10080970;28;20978;-64
2021/04/08 02:28:34;;;;;;;1.38;0.90;;;5.40;50.30;;;;;;10081591;28;20254;-62
2021/04/08 02:33:26;;;;;;;2.25;0.80;;;5.30;50.30;;;;;;10081577;28;20094;-65
2021/04/08 02:38:32;;;;;;;1.23;0.57;;;5.40;50.30;;;;;;10080747;28;20632;-62
2021/04/08 02:43:23;;;;;;;3.37;1.00;;;5.30;50.10;;;;;;10081438;28;20028;-63
2021/04/08 02:48:16;;;;;;;0.73;0.50;;;5.30;50.20;;;;;;10081318;28;20043;-63
2021/04/08 02:53:22;;;;;;;1.63;0.80;;;5.30;50.10;;;;;;10097197;28;20624;-63
2021/04/08 02:58:16;;;;;;;1.17;0.80;;;5.30;50.10;;;;;;10079901;28;20048;-62
2021/04/08 03:03:09;;;;;;;2.10;1.15;;;5.30;50.10;;;;;;10081415;28;20084;-65
2021/04/08 03:08:04;;;;;;;3.72;0.98;;;5.30;50.10;;;;;;10078466;28;20116;-63
2021/04/08 03:12:57;;;;;;;2.83;0.80;;;5.20;50.00;;;;;;10081281;28;20045;-62
2021/04/08 03:17:51;;;;;;;2.28;1.15;;;5.20;50.00;;;;;;10079545;28;20111;-62
2021/04/08 03:22:43;;;;;;;1.15;0.75;;;5.20;50.00;;;;;;10080962;28;20301;-63
2021/04/08 03:27:36;;;;;;;2.33;0.85;;;5.20;50.00;;;;;;10080310;28;20426;-64
2021/04/08 03:32:27;;;;;;;1.90;0.88;;;5.20;49.90;;;;;;10087278;28;20056;-62
2021/04/08 03:37:19;;;;;;;1.98;1.00;;;5.20;49.90;;;;;;10087205;28;20064;-63
2021/04/08 03:42:14;;;;;;;0.95;0.55;;;5.20;49.80;;;;;;10069675;28;20511;-62
2021/04/08 03:47:06;;;;;;;1.05;0.80;;;5.20;49.80;;;;;;10086918;28;21012;-63
2021/04/08 03:51:58;;;;;;;1.00;0.70;;;5.10;49.80;;;;;;10087015;28;20028;-62
2021/04/08 03:56:52;;;;;;;1.80;0.70;;;5.10;49.90;;;;;;10087505;28;20041;-63
2021/04/08 04:01:44;;;;;;;2.15;0.90;;;5.10;50.00;;;;;;10086494;28;20510;-63
2021/04/08 04:06:37;;;;;;;3.63;0.77;;;5.00;50.00;;;;;;10087391;28;20055;-66
2021/04/08 04:11:31;;;;;;;1.75;0.90;;;5.00;50.10;;;;;;10068510;28;20617;-66
2021/04/08 04:16:22;;;;;;;1.30;0.82;;;5.00;50.10;;;;;;10068868;28;20045;-64
2021/04/08 04:21:13;;;;;;;2.58;0.60;;;5.00;50.20;;;;;;10085541;28;20051;-63
2021/04/08 04:26:04;;;;;;;0.60;0.60;;;5.00;50.40;;;;;;10067952;28;20021;-62
2021/04/08 04:30:54;;;;;;;2.67;1.00;;;5.00;50.30;;;;;;10086426;28;20032;-63
2021/04/08 04:35:45;;;;;;;1.35;0.70;;;5.10;50.30;;;;;;10085183;28;20052;-68
2021/04/08 04:40:36;;;;;;;2.33;1.00;;;5.10;50.30;;;;;;10085033;28;20089;-63
2021/04/08 04:45:27;;;;;;;3.03;0.73;;;5.00;50.30;;;;;;10066948;28;20035;-67
2021/04/08 04:50:17;;;;;;;1.40;1.00;;;5.00;50.50;;;;;;10086419;28;20044;-64
2021/04/08 04:55:09;;;;;;;1.05;0.73;;;5.00;50.70;;;;;;10066432;28;20036;-62
2021/04/08 05:00:00;;;;;;;2.78;0.85;;;4.90;50.70;;;;;;10085673;28;20047;-66
2021/04/08 05:04:57;;;;;;;2.78;0.90;;;4.90;50.70;;;;;;10092637;28;20043;-66
2021/04/08 05:09:47;;;;;;;2.28;1.02;;;4.90;50.70;;;;;;10083563;28;20052;-62
2021/04/08 05:14:38;;;;;;;1.17;0.80;;;5.00;50.70;;;;;;10083939;28;20039;-63
2021/04/08 05:19:31;;;;;;;1.50;1.20;;;5.00;50.80;;;;;;10082508;28;20446;-66
2021/04/08 05:24:22;;;;;;;2.10;1.27;;;5.00;50.90;;;;;;10065756;28;20119;-63
2021/04/08 05:29:13;;;;;;;2.00;1.13;;;5.00;50.80;;;;;;10082335;28;20029;-69
2021/04/08 05:34:03;;;;;;;4.65;1.20;;;5.00;50.90;;;;;;10083151;28;20385;-67
2021/04/08 05:38:54;;;;;;;2.17;1.13;;;5.00;50.90;;;;;;10084150;28;20032;-69
2021/04/08 05:43:45;;;;;;;2.15;1.40;;;5.10;50.80;;;;;;10083422;28;20062;-68
2021/04/08 05:48:39;;;;;;;3.10;1.10;;;5.20;50.80;;;;;;10082882;28;20321;-66
2021/04/08 05:53:30;;;;;;;3.10;1.17;;;5.20;50.80;;;;;;10083155;28;20035;-67
2021/04/08 05:58:21;;;;;;;5.57;0.93;;;5.30;50.90;;;;;;10081620;28;20059;-64
2021/04/08 06:03:12;;;;;;;1.90;1.05;;;5.30;51.00;;;;;;10081305;28;21637;-63
2021/04/08 06:08:03;;;;;;;2.22;1.35;;;5.30;50.90;;;;;;10082214;28;20036;-65
2021/04/08 06:12:55;;;;;;;2.58;1.33;;;5.30;51.00;;;;;;10080519;28;20033;-63
2021/04/08 06:17:45;;;;;;;2.47;1.23;;;5.40;51.10;;;;;;10081720;28;20048;-67
2021/04/08 06:22:36;;;;;;;2.70;1.13;;;5.40;51.00;;;;;;10083401;28;20037;-66
2021/04/08 06:27:29;;;;;;;3.15;1.08;;;5.30;51.00;;;;;;10081191;28;20069;-63
2021/04/08 06:32:20;;;;;;;3.15;1.35;;;5.40;51.00;;;;;;10083750;28;20918;-65
2021/04/08 06:37:10;;;;;;;1.95;1.17;;;5.60;50.80;;;;;;10092739;28;20055;-63
2021/04/08 06:42:01;;;;;;;2.28;1.30;;;5.60;50.90;;;;;;10089188;28;20033;-57
2021/04/08 06:46:57;;;;;;;1.67;1.10;;;5.60;50.90;;;;;;10084459;28;20032;-60
2021/04/08 06:51:56;;;;;;;3.42;1.15;;;5.60;50.90;;;;;;10082337;28;20064;-59
2021/04/08 06:56:48;;;;;;;3.88;1.10;;;5.70;51.00;;;;;;10082283;28;20521;-64
2021/04/08 07:01:40;;;;;;;3.17;0.90;;;5.70;50.80;;;;;;10084900;28;20061;-61
2021/04/08 07:06:31;;;;;;;4.65;1.42;;;5.80;50.70;;;;;;10070874;28;20033;-60
2021/04/08 07:11:22;;;;;;;3.80;2.17;;;6.10;50.50;;;;;;10087227;28;20035;-60
2021/04/08 07:16:14;;;;;;;2.42;2.00;;;6.00;50.30;;;;;;10070329;28;20679;-57
2021/04/08 07:21:05;;;;;;;2.88;1.60;;;6.00;50.40;;;;;;10074964;28;20189;-62
2021/04/08 07:25:59;;;;;;;3.63;1.38;;;6.10;50.40;;;;;;10075997;28;20039;-62
2021/04/08 07:30:50;;;;;;;2.85;2.13;;;6.10;50.20;;;;;;10074987;28;20545;-60
2021/04/08 07:35:41;;;;;;;5.72;2.00;;;6.20;50.30;;;;;;10074248;28;20043;-62
2021/04/08 07:40:31;;;;;;;3.65;2.00;;;6.30;50.00;;;;;;10053546;28;20306;-59
2021/04/08 07:45:33;;;;;;;2.20;1.73;;;6.40;50.30;;;;;;10073045;28;20071;-58
2021/04/08 07:50:24;;;;;;;6.50;2.33;;;6.50;49.90;;;;;;10071887;28;20028;-59
2021/04/08 07:55:29;;;;;;;7.22;3.05;;;6.50;50.00;;;;;;10072490;28;20126;-60
2021/04/08 08:00:30;;;;;;;3.53;2.23;;;6.50;49.90;;;;;;10071965;28;20043;-60
2021/04/08 08:05:26;;;;;;;5.13;2.78;;;6.60;49.90;;;;;;10071053;28;20036;-63
2021/04/08 08:10:20;;;;;;;3.28;2.33;;;6.50;49.80;;;;;;10060933;28;20468;-55
2021/04/08 08:15:21;;;;;;;6.95;2.30;;;6.40;49.80;;;;;;10011450;28;20487;-57
2021/04/08 08:20:13;;;;;;;3.03;2.08;;;6.50;49.70;;;;;;10024836;28;20337;-58
2021/04/08 08:25:05;;;;;;;4.57;1.80;;;6.50;49.60;;;;;;10043185;28;20957;-60
2021/04/08 08:29:59;;;;;;;5.85;2.40;;;6.70;49.40;;;;;;10032112;28;20039;-60
2021/04/08 08:34:50;;;;;;;2.40;1.95;;;6.90;49.20;;;;;;10011501;28;20074;-65
2021/04/08 08:39:47;;;;;;;3.63;1.60;;;7.00;49.20;;;;;;10026303;28;20113;-64
2021/04/08 08:44:38;;;;;;;6.25;2.08;;;7.30;48.60;;;;;;10023515;28;20074;-62
2021/04/08 08:49:42;;;;;;;2.83;1.75;;;7.20;48.20;;;;;;10022945;28;20047;-60
2021/04/08 08:54:34;;;;;;;2.63;1.88;;;7.60;48.40;;;;;;10022127;28;21303;-60
2021/04/08 08:59:33;;;;;;;6.05;2.35;;;7.80;48.00;;;;;;10027743;28;20293;-67
2021/04/08 09:04:24;;;;;;;2.55;2.00;;;7.60;48.00;;;;;;10044149;28;20117;-70
2021/04/08 09:09:18;;;;;;;3.97;2.33;;;8.00;48.10;;;;;;10026939;28;20059;-66
2021/04/08 09:14:12;;;;;;;3.97;2.10;;;8.30;47.60;;;;;;10043862;28;20040;-73
2021/04/08 09:19:23;;;;;;;2.85;2.05;;;8.70;47.20;;;;;;10027446;28;20501;-79
2021/04/08 09:24:39;;;;;;;4.30;2.47;;;8.70;47.20;;;;;;10027214;28;20043;-60
2021/04/08 09:29:36;;;;;;;3.90;2.22;;;8.50;47.10;;;;;;10024326;28;20036;-58
2021/04/08 09:34:27;;;;;;;4.55;2.20;;;8.80;47.20;;;;;;10027992;28;20757;-59
2021/04/08 09:39:20;;;;;;;2.53;2.00;;;8.70;47.30;;;;;;10030944;28;20376;-63
2021/04/08 09:44:13;;;;;;;3.20;2.17;;;8.90;46.90;;;;;;10023309;28;20964;-60
2021/04/08 09:49:04;;;;;;;6.57;2.40;;;9.10;46.70;;;;;;10024607;28;20043;-60
2021/04/08 09:53:55;;;;;;;3.63;1.75;;;8.90;46.50;;;;;;10026125;28;20029;-61
2021/04/08 09:58:56;;;;;;;3.60;1.90;;;9.40;46.10;;;;;;10025061;28;20182;-67
2021/04/08 10:03:47;;;;;;;4.03;2.50;;;9.50;45.70;;;;;;10026965;28;20066;-63
2021/04/08 10:08:38;;;;;;;4.95;1.90;;;9.80;45.70;;;;;;10026774;28;21918;-63
2021/04/08 10:13:31;;;;;;;5.97;2.30;;;9.70;45.00;;;;;;10024169;28;20033;-64
2021/04/08 10:18:26;;;;;;;4.90;2.05;;;9.80;45.60;;;;;;10011041;28;20044;-69
2021/04/08 10:23:43;;;;;;;3.13;1.63;;;9.40;45.50;;;;;;10008816;28;20089;-64
2021/04/08 10:28:47;;;;;;;2.83;2.08;;;9.20;45.30;;;;;;10005706;28;20037;-60
2021/04/08 10:33:38;;;;;;;5.15;2.38;;;9.20;46.10;;;;;;10026614;28;20052;-69
2021/04/08 10:38:29;;;;;;;4.43;1.75;;;9.50;44.90;;;;;;10037069;28;20478;-64
2021/04/08 10:43:20;;;;;;;2.38;1.63;;;9.70;44.50;;;;;;10044256;28;20210;-64
2021/04/08 10:48:11;;;;;;;2.20;1.70;;;9.90;44.40;;;;;;10040939;28;20071;-70
2021/04/08 10:53:02;;;;;;;5.05;2.03;;;9.90;44.00;;;;;;10038911;28;20549;-62
2021/04/08 10:57:53;;;;;;;3.10;2.03;;;9.70;44.30;;;;;;10032062;28;20079;-64
2021/04/08 11:02:45;;;;;;;2.85;1.80;;;9.80;43.90;;;;;;10028871;28;20628;-65
2021/04/08 11:07:41;;;;;;;4.00;1.63;;;9.60;44.00;;;;;;10030026;28;20414;-63
2021/04/08 11:12:32;;;;;;;8.75;3.92;;;9.70;43.90;;;;;;10029726;28;20042;-65
2021/04/08 11:17:25;;;;;;;3.10;2.55;;;9.70;43.80;;;;;;10028930;28;20040;-67
2021/04/08 11:22:18;;;;;;;2.42;1.58;;;9.70;43.10;;;;;;10026453;28;20029;-64
2021/04/08 11:27:09;;;;;;;2.38;1.50;;;9.50;43.10;;;;;;10029060;28;20159;-63
2021/04/08 11:32:03;;;;;;;3.00;1.75;;;9.50;42.60;;;;;;10026414;28;20156;-62
2021/04/08 11:36:54;;;;;;;3.83;1.77;;;9.60;42.50;;;;;;10006928;28;20840;-62
2021/04/08 11:41:45;;;;;;;4.68;2.75;;;10.10;42.40;;;;;;10014191;28;20032;-64
2021/04/08 11:46:36;;;;;;;3.60;2.30;;;10.50;41.80;;;;;;10029865;28;20065;-61
2021/04/08 11:51:30;;;;;;;2.80;1.52;;;10.80;41.50;;;;;;10029450;28;20044;-64
2021/04/08 11:56:33;;;;;;;2.55;1.80;;;11.30;41.20;;;;;;10028866;28;20055;-61
2021/04/08 12:01:36;;;;;;;3.25;2.42;;;11.60;40.70;;;;;;10027675;28;20020;-63
2021/04/08 12:06:27;;;;;;;4.50;2.10;;;11.70;40.50;;;;;;10026324;28;20617;-67
2021/04/08 12:11:19;;;;;;;3.30;1.88;;;11.60;40.80;;;;;;10028271;28;20040;-60
2021/04/08 12:16:24;;;;;;;4.05;1.77;;;11.50;40.80;;;;;;10026001;28;20498;-61
2021/04/08 12:21:14;;;;;;;3.63;2.15;;;11.60;40.70;;;;;;10029567;28;20463;-59
2021/04/08 12:26:06;;;;;;;5.22;2.00;;;11.40;40.80;;;;;;10028507;28;20037;-73
2021/04/08 12:31:01;;;;;;;3.28;1.77;;;11.70;40.20;;;;;;10012163;28;20336;-70
2021/04/08 12:35:53;;;;;;;3.83;1.85;;;12.10;39.60;;;;;;10030843;28;21149;-67
2021/04/08 12:40:44;;;;;;;4.93;1.98;;;12.00;39.60;;;;;;10029429;28;20098;-57
2021/04/08 12:45:35;;;;;;;4.57;2.35;;;12.10;39.40;;;;;;10029752;28;20495;-66
2021/04/08 12:50:25;;;;;;;4.75;2.42;;;12.20;39.20;;;;;;10026289;28;20032;-65
2021/04/08 12:55:16;;;;;;;5.57;2.58;;;12.40;39.00;;;;;;10029023;28;20033;-67
2021/04/08 13:00:08;;;;;;;3.50;1.80;;;12.80;38.90;;;;;;10026167;28;20132;-63
2021/04/08 13:04:59;;;;;;;3.53;2.13;;;13.00;39.20;;;;;;10027003;28;20036;-70
2021/04/08 13:09:49;;;;;;;4.28;1.88;;;14.10;40.20;;;;;;10037549;28;20036;-62
2021/04/08 13:14:40;;;;;;;5.07;2.00;;;14.30;39.10;;;;;;10025839;28;20699;-59
2021/04/08 13:19:31;;;;;;;2.75;1.40;;;13.60;38.70;;;;;;10006204;28;20762;-63
2021/04/08 13:24:21;;;;;;;4.68;2.20;;;14.00;38.40;;;;;;10024749;28;20031;-68
2021/04/08 13:29:13;;;;;;;4.60;1.80;;;15.90;36.80;;;;;;10021570;28;20466;-73
2021/04/08 13:34:03;;;;;;;1.85;1.52;;;17.70;35.20;;;;;;10022171;28;20052;-61
2021/04/08 13:38:54;;;;;;;3.75;2.50;;;20.00;32.50;;;;;;10024806;28;20479;-59
2021/04/08 13:43:45;;;;;;;4.18;2.72;;;20.60;31.60;;;;;;10023459;28;20802;-64
2021/04/08 13:48:36;;;;;;;2.88;1.77;;;20.40;30.20;;;;;;10024854;28;20029;-63
2021/04/08 13:53:30;;;;;;;4.38;2.08;;;20.70;30.00;;;;;;10026559;28;20039;-59
2021/04/08 13:58:21;;;;;;;3.85;2.17;;;21.90;29.40;;;;;;10027638;28;20044;-62
2021/04/08 14:03:19;;;;;;;3.28;1.80;;;22.20;28.90;;;;;;10026500;28;20261;-60
2021/04/08 14:08:10;;;;;;;4.72;2.30;;;23.20;27.50;;;;;;10030386;28;20481;-65
2021/04/08 14:13:01;;;;;;;4.45;1.92;;;21.90;28.10;;;;;;10041769;28;20036;-63
2021/04/08 14:17:53;;;;;;;4.95;2.33;;;20.80;28.40;;;;;;10027894;28;20033;-60
2021/04/08 14:22:44;;;;;;;5.50;2.83;;;20.90;28.10;;;;;;10021474;28;20555;-61
2021/04/08 14:27:35;;;;;;;4.50;1.83;;;21.20;27.70;;;;;;10023730;28;20032;-61
2021/04/08 14:32:26;;;;;;;4.45;2.10;;;21.10;27.80;;;;;;10020730;28;20558;-71
2021/04/08 14:37:17;;;;;;;3.95;1.52;;;21.10;27.60;;;;;;10021056;28;20395;-65
2021/04/08 14:42:08;;;;;;;3.20;2.03;;;20.80;27.90;;;;;;10026609;28;20495;-62
2021/04/08 14:46:59;;;;;;;2.88;1.95;;;20.90;27.20;;;;;;10023747;28;20712;-69
2021/04/08 14:51:50;;;;;;;2.53;2.08;;;20.70;27.20;;;;;;10023339;28;20024;-66
2021/04/08 14:56:41;;;;;;;3.20;2.67;;;21.10;26.80;;;;;;10023902;28;20040;-63
2021/04/08 15:01:32;;;;;;;4.47;2.40;;;20.70;26.30;;;;;;10025088;28;20039;-60
2021/04/08 15:06:22;;;;;;;5.07;2.30;;;21.10;26.40;;;;;;10023942;28;20064;-62
2021/04/08 15:11:13;;;;;;;5.10;2.35;;;21.80;25.90;;;;;;10025017;28;20490;-60
2021/04/08 15:16:04;;;;;;;3.65;3.05;;;22.40;25.20;;;;;;10031816;28;20114;-61
2021/04/08 15:20:55;;;;;;;2.90;1.73;;;22.50;25.10;;;;;;10046908;28;20406;-64
2021/04/08 15:25:46;;;;;;;3.55;2.55;;;22.10;24.90;;;;;;10050591;28;20030;-58
2021/04/08 15:30:37;;;;;;;2.22;1.75;;;22.40;24.70;;;;;;10061044;28;20036;-62
2021/04/08 15:35:28;;;;;;;3.20;1.95;;;23.30;24.10;;;;;;10057217;28;20048;-60
2021/04/08 15:40:19;;;;;;;3.85;2.03;;;24.20;23.50;;;;;;10053538;28;21390;-61
2021/04/08 15:45:10;;;;;;;4.53;2.47;;;24.10;23.20;;;;;;10053535;28;20587;-63
2021/04/08 15:50:01;;;;;;;3.63;2.10;;;23.60;23.10;;;;;;10036092;28;20044;-58
2021/04/08 15:54:52;;;;;;;3.40;2.00;;;23.60;22.70;;;;;;10051718;28;20797;-63
2021/04/08 15:59:43;;;;;;;4.63;2.10;;;23.40;22.30;;;;;;10054413;28;20094;-62
2021/04/08 16:04:34;;;;;;;3.53;2.20;;;23.10;22.30;;;;;;10054665;28;20957;-69
2021/04/08 16:09:24;;;;;;;5.40;1.65;;;23.30;21.90;;;;;;10053695;28;21114;-70
2021/04/08 16:14:18;;;;;;;3.35;2.17;;;24.40;21.70;;;;;;10051406;28;20033;-62
2021/04/08 16:19:09;;;;;;;8.07;2.67;;;25.30;21.40;;;;;;10051874;28;20115;-62
2021/04/08 16:24:00;;;;;;;2.55;1.90;;;25.40;22.10;;;;;;10037618;28;20817;-67
2021/04/08 16:28:51;;;;;;;5.13;1.90;;;25.30;21.50;;;;;;10054009;28;20167;-61
2021/04/08 16:33:43;;;;;;;4.10;1.90;;;25.70;21.20;;;;;;10035621;28;20048;-64
2021/04/08 16:38:38;;;;;;;3.58;1.88;;;25.30;20.90;;;;;;10067753;28;20051;-62
2021/04/08 16:43:29;;;;;;;3.70;2.50;;;25.90;20.90;;;;;;10052388;28;20139;-62
2021/04/08 16:48:20;;;;;;;6.97;2.45;;;25.10;20.90;;;;;;10035661;28;20025;-61
2021/04/08 16:53:11;;;;;;;3.97;2.20;;;25.00;21.00;;;;;;10053875;28;20403;-68
2021/04/08 16:58:02;;;;;;;3.90;2.00;;;25.30;21.00;;;;;;10053167;28;20076;-67
2021/04/08 17:02:53;;;;;;;2.28;2.05;;;25.50;21.00;;;;;;10054351;28;20292;-65
2021/04/08 17:07:43;;;;;;;5.35;2.35;;;24.70;21.90;;;;;;10052949;28;20653;-61
2021/04/08 17:12:35;;;;;;;6.70;2.30;;;23.90;21.70;;;;;;10053186;28;20116;-62
2021/04/08 17:17:25;;;;;;;5.72;2.20;;;23.30;21.90;;;;;;10054330;28;20068;-66
2021/04/08 17:22:19;;;;;;;4.43;2.17;;;20.60;23.20;;;;;;10054541;28;20033;-60
2021/04/08 17:27:10;;;;;;;6.28;2.45;;;17.50;25.10;;;;;;10049613;28;20622;-62
2021/04/08 17:32:04;;;;;;;3.85;2.30;;;15.90;25.80;;;;;;10048289;28;20421;-61
2021/04/08 17:36:55;;;;;;;3.20;2.40;;;15.10;25.80;;;;;;10067791;28;20049;-61
2021/04/08 17:41:46;;;;;;;6.05;2.58;;;14.70;25.80;;;;;;10049400;28;20032;-66
2021/04/08 17:46:37;;;;;;;4.70;2.33;;;14.40;25.80;;;;;;10047260;28;21409;-59
2021/04/08 17:51:28;;;;;;;4.28;2.15;;;14.10;25.90;;;;;;10034328;28;20071;-65
2021/04/08 17:56:20;;;;;;;3.28;2.13;;;13.80;26.10;;;;;;10048853;28;20048;-70
2021/04/08 18:01:11;;;;;;;6.60;2.30;;;13.50;26.30;;;;;;10061506;28;20848;-62
2021/04/08 18:06:03;;;;;;;4.90;2.20;;;13.50;26.40;;;;;;10048193;28;20033;-62
2021/04/08 18:10:54;;;;;;;5.07;2.72;;;13.30;26.70;;;;;;10047007;28;21695;-66
2021/04/08 18:15:48;;;;;;;6.10;2.05;;;13.20;26.80;;;;;;10045321;28;20036;-63
2021/04/08 18:20:38;;;;;;;4.95;2.70;;;13.10;26.90;;;;;;10046790;28;20025;-60
2021/04/08 18:25:30;;;;;;;5.53;2.28;;;13.10;27.00;;;;;;10045844;28;20958;-63
2021/04/08 18:30:21;;;;;;;3.55;2.42;;;13.00;27.20;;;;;;10045798;28;20155;-60
2021/04/08 18:35:13;;;;;;;5.40;2.78;;;12.90;27.40;;;;;;10025927;28;20491;-65
2021/04/08 18:40:06;;;;;;;8.93;3.30;;;12.80;27.60;;;;;;10046175;28;20139;-64
2021/04/08 18:44:57;;;;;;;6.07;2.90;;;12.70;27.80;;;;;;10059298;28;20696;-60
2021/04/08 18:49:48;;;;;;;4.40;2.60;;;12.60;27.90;;;;;;10059779;28;20036;-63
2021/04/08 18:54:40;;;;;;;5.07;3.22;;;12.50;27.90;;;;;;10047273;28;20040;-69
2021/04/08 18:59:31;;;;;;;5.03;2.78;;;12.50;28.60;;;;;;10046975;28;20039;-61
2021/04/08 19:04:22;;;;;;;5.90;2.85;;;12.40;28.30;;;;;;10038586;28;20140;-60
2021/04/08 19:09:13;;;;;;;6.25;3.15;;;12.20;28.70;;;;;;10056257;28;20565;-64
2021/04/08 19:14:04;;;;;;;4.53;2.90;;;12.10;28.80;;;;;;10055292;28;20085;-63
2021/04/08 19:18:55;;;;;;;9.95;3.92;;;11.90;29.00;;;;;;10055096;28;20047;-57
2021/04/08 19:23:46;;;;;;;5.82;3.28;;;11.80;29.20;;;;;;10055458;28;20123;-63
2021/04/08 19:28:37;;;;;;;12.75;6.82;;;11.70;29.40;;;;;;10055234;28;20029;-62
2021/04/08 19:33:28;;;;;;;15.15;7.07;;;11.70;29.60;;;;;;10056128;28;20071;-61
2021/04/08 19:38:19;;;;;;;17.50;8.30;;;11.60;29.70;;;;;;10056949;28;20136;-62
2021/04/08 19:43:11;;;;;;;9.93;5.70;;;11.60;30.00;;;;;;10066820;28;20419;-64
2021/04/08 19:48:03;;;;;;;9.30;4.43;;;11.40;30.40;;;;;;10052528;28;20056;-62
2021/04/08 19:52:54;;;;;;;11.50;5.82;;;11.30;30.70;;;;;;10065736;28;20338;-64
2021/04/08 19:57:47;;;;;;;8.20;4.43;;;11.30;31.00;;;;;;10065374;28;20091;-65
2021/04/08 20:02:38;;;;;;;7.55;3.70;;;11.20;31.40;;;;;;10049511;28;20028;-59
2021/04/08 20:07:29;;;;;;;5.88;2.72;;;11.10;31.50;;;;;;10054681;28;20056;-64
2021/04/08 20:12:20;;;;;;;6.75;3.55;;;10.90;31.80;;;;;;10051139;28;20032;-61
2021/04/08 20:17:11;;;;;;;7.82;3.83;;;10.90;32.70;;;;;;10051971;28;20513;-68
2021/04/08 20:22:01;;;;;;;9.43;3.70;;;10.80;32.40;;;;;;10052925;28;20036;-60
2021/04/08 20:26:52;;;;;;;8.75;2.85;;;10.70;32.60;;;;;;10053272;28;20629;-65
2021/04/08 20:31:43;;;;;;;8.10;3.03;;;10.60;32.90;;;;;;10037957;28;20448;-61
2021/04/08 20:36:37;;;;;;;8.50;3.90;;;10.50;33.50;;;;;;10054572;28;20063;-67
2021/04/08 20:41:28;;;;;;;5.53;3.17;;;10.40;33.60;;;;;;10053857;28;20033;-62
2021/04/08 20:46:19;;;;;;;3.80;2.90;;;10.30;34.10;;;;;;10058599;28;20036;-65
2021/04/08 20:51:11;;;;;;;5.03;2.58;;;10.20;34.40;;;;;;10068921;28;20576;-64
2021/04/08 20:56:02;;;;;;;6.43;3.20;;;10.10;34.70;;;;;;10053527;28;20064;-66
2021/04/08 21:00:56;;;;;;;7.25;2.95;;;10.10;35.20;;;;;;10035407;28;20036;-64
2021/04/08 21:05:46;;;;;;;6.95;2.90;;;10.00;35.50;;;;;;10033357;28;20498;-63
2021/04/08 21:10:37;;;;;;;4.38;2.40;;;9.70;35.90;;;;;;10050540;28;20037;-70
2021/04/08 21:15:28;;;;;;;5.13;3.90;;;9.80;36.30;;;;;;10052390;28;20518;-61
2021/04/08 21:20:22;;;;;;;5.10;3.45;;;9.80;36.40;;;;;;10062022;28;20029;-62
2021/04/08 21:25:14;;;;;;;5.63;2.80;;;9.70;36.70;;;;;;10046638;28;20033;-63
2021/04/08 21:30:07;;;;;;;6.78;2.67;;;9.70;37.00;;;;;;10031002;28;20594;-63
2021/04/08 21:34:58;;;;;;;5.65;3.45;;;9.50;37.30;;;;;;10035175;28;20587;-64
2021/04/08 21:39:49;;;;;;;4.82;3.20;;;9.30;37.60;;;;;;10032691;28;20067;-67
2021/04/08 21:44:40;;;;;;;5.68;2.63;;;9.30;37.80;;;;;;10049155;28;20312;-64
2021/04/08 21:49:31;;;;;;;5.60;3.67;;;9.30;38.10;;;;;;10033685;28;20532;-65
2021/04/08 21:54:21;;;;;;;8.85;2.78;;;9.30;38.00;;;;;;10048859;28;20265;-74
2021/04/08 21:59:12;;;;;;;6.07;2.58;;;9.30;38.20;;;;;;10049905;28;20683;-61
2021/04/08 22:04:07;;;;;;;4.90;2.47;;;9.10;38.60;;;;;;10048788;28;20028;-62
2021/04/08 22:08:59;;;;;;;5.67;2.87;;;9.10;38.80;;;;;;10052278;28;20041;-64
2021/04/08 22:13:50;;;;;;;5.50;2.50;;;9.00;38.80;;;;;;10053827;28;20190;-64
2021/04/08 22:18:40;;;;;;;5.22;3.17;;;9.00;39.10;;;;;;10048937;28;20535;-67
2021/04/08 22:23:34;;;;;;;4.25;2.83;;;9.00;39.20;;;;;;10049031;28;20054;-67
2021/04/08 22:28:26;;;;;;;7.03;2.47;;;8.90;39.30;;;;;;10049035;28;20033;-71
2021/04/08 22:33:17;;;;;;;6.90;3.05;;;8.80;39.50;;;;;;10050460;28;20056;-68
2021/04/08 22:38:10;;;;;;;5.60;2.92;;;8.80;39.60;;;;;;10046506;28;20037;-70
2021/04/08 22:43:00;;;;;;;7.13;2.67;;;8.70;40.00;;;;;;10050307;28;20190;-62
2021/04/08 22:47:51;;;;;;;4.45;2.85;;;8.80;40.00;;;;;;10038823;28;20048;-67
2021/04/08 22:52:42;;;;;;;3.80;2.50;;;8.80;40.10;;;;;;10063015;28;20635;-62
2021/04/08 22:57:35;;;;;;;3.83;2.63;;;8.70;40.40;;;;;;10062811;28;20052;-63
2021/04/08 23:02:26;;;;;;;5.00;3.10;;;8.60;41.20;;;;;;10069206;28;20039;-64
2021/04/08 23:07:17;;;;;;;3.10;2.05;;;8.40;40.50;;;;;;10066030;28;20541;-60
2021/04/08 23:12:09;;;;;;;3.83;3.05;;;8.40;41.00;;;;;;10039556;28;20094;-67
2021/04/08 23:17:00;;;;;;;4.47;2.28;;;8.20;41.30;;;;;;10054300;28;20083;-64
2021/04/08 23:21:54;;;;;;;5.03;2.53;;;8.00;41.70;;;;;;10051794;28;20627;-62
2021/04/08 23:26:45;;;;;;;4.72;2.58;;;8.00;41.70;;;;;;10048180;28;20063;-61
2021/04/08 23:31:36;;;;;;;5.65;2.63;;;8.10;41.60;;;;;;10047529;28;20041;-62
2021/04/08 23:36:26;;;;;;;4.53;2.70;;;8.10;41.70;;;;;;10043100;28;20033;-61
2021/04/08 23:41:17;;;;;;;2.83;2.13;;;8.00;42.00;;;;;;10047004;28;20051;-62
2021/04/08 23:46:08;;;;;;;4.40;2.83;;;8.00;42.20;;;;;;10049922;28;20912;-61
2021/04/08 23:51:04;;;;;;;2.75;2.38;;;7.90;42.50;;;;;;10056290;28;20474;-67
2021/04/08 23:55:54;;;;;;;2.63;1.93;;;7.70;42.70;;;;;;10054905;28;20079;-61
